createdAt,value
2023-11-23T00:00:10.612Z,101181.66
2023-11-23T00:02:37.710Z,101177.28
2023-11-23T00:05:05.347Z,101180.88
2023-11-23T00:07:33.065Z,101181.81
2023-11-23T00:10:00.013Z,101162.88
2023-11-23T00:12:26.499Z,101167.81
2023-11-23T00:14:53.076Z,101161.63
2023-11-23T00:17:19.869Z,101161.69
2023-11-23T00:19:49.671Z,101150.16
2023-11-23T00:22:16.587Z,101157.13
2023-11-23T00:24:43.262Z,101151.69
2023-11-23T00:27:09.978Z,101149.84
2023-11-23T00:29:36.526Z,101141.41
2023-11-23T00:32:03.398Z,101136.13
2023-11-23T00:34:29.918Z,101136.44
2023-11-23T00:36:57.117Z,101140.38
2023-11-23T00:39:23.623Z,101128.94
2023-11-23T00:41:50.426Z,101123.66
2023-11-23T00:44:18.152Z,101127.75
2023-11-23T00:46:44.742Z,101117.09
2023-11-23T00:49:11.929Z,101111.94
2023-11-23T00:51:38.377Z,101110.06
2023-11-23T00:54:07.777Z,101111.69
2023-11-23T00:56:34.203Z,101105.78
2023-11-23T00:59:15.962Z,101106.09
2023-11-23T01:01:42.586Z,101103.75
2023-11-23T01:04:09.388Z,101107.69
2023-11-23T01:06:35.934Z,101089.97
2023-11-23T01:09:02.452Z,101077.81
2023-11-23T01:11:29.702Z,101085.78
2023-11-23T01:13:56.265Z,101077.44
2023-11-23T01:16:22.644Z,101080.00
2023-11-23T01:18:49.096Z,101075.75
2023-11-23T01:21:15.589Z,101071.94
2023-11-23T01:23:42.055Z,101067.84
2023-11-23T01:26:08.474Z,101069.19
2023-11-23T01:28:35.289Z,101081.00
2023-11-23T01:31:01.652Z,101047.28
2023-11-23T01:33:28.112Z,101056.06
2023-11-23T01:35:54.723Z,101055.47
2023-11-23T01:38:21.779Z,101058.84
2023-11-23T01:40:48.170Z,101044.97
2023-11-23T01:43:14.674Z,101048.41
2023-11-23T01:45:41.111Z,101037.78
2023-11-23T01:48:07.755Z,101037.53
2023-11-23T01:50:34.956Z,101030.34
2023-11-23T01:53:02.452Z,101033.97
2023-11-23T01:55:41.355Z,101042.22
2023-11-23T01:58:09.752Z,101036.78
2023-11-23T02:00:37.930Z,101036.41
2023-11-23T02:03:05.536Z,101030.78
2023-11-23T02:05:32.052Z,101042.03
2023-11-23T02:07:58.486Z,101023.94
2023-11-23T02:10:24.966Z,101020.06
2023-11-23T02:12:51.645Z,101017.09
2023-11-23T02:15:19.984Z,101006.63
2023-11-23T02:17:47.165Z,101006.97
2023-11-23T02:20:14.943Z,100998.84
2023-11-23T02:22:41.449Z,101003.78
2023-11-23T02:25:08.318Z,100989.25
2023-11-23T02:27:37.844Z,100982.88
2023-11-23T02:30:07.009Z,100977.47
2023-11-23T02:32:33.698Z,100984.94
2023-11-23T02:35:00.284Z,100988.16
2023-11-23T02:37:26.825Z,100984.22
2023-11-23T02:39:53.212Z,100996.28
2023-11-23T02:42:19.633Z,100999.78
2023-11-23T02:44:46.067Z,100995.66
2023-11-23T02:47:12.466Z,100979.81
2023-11-23T02:49:38.837Z,100984.09
2023-11-23T02:52:06.103Z,100973.84
2023-11-23T02:54:32.638Z,100965.25
2023-11-23T02:56:59.084Z,100966.84
2023-11-23T02:59:25.505Z,100972.19
2023-11-23T03:01:52.030Z,100961.22
2023-11-23T03:04:18.520Z,100944.63
2023-11-23T03:06:45.041Z,100952.25
2023-11-23T03:09:12.076Z,100953.91
2023-11-23T03:11:38.512Z,100948.28
2023-11-23T03:14:05.125Z,100943.72
2023-11-23T03:16:31.810Z,100941.16
2023-11-23T03:19:01.300Z,100946.28
2023-11-23T03:21:27.765Z,100940.16
2023-11-23T03:23:54.294Z,100947.25
2023-11-23T03:26:20.685Z,100944.50
2023-11-23T03:28:47.068Z,100942.28
2023-11-23T03:31:13.606Z,100925.47
2023-11-23T03:33:40.058Z,100909.69
2023-11-23T03:36:06.996Z,100918.22
2023-11-23T03:38:34.300Z,100904.44
2023-11-23T03:41:01.267Z,100900.13
2023-11-23T03:43:27.788Z,100907.91
2023-11-23T03:45:55.666Z,100911.69
2023-11-23T03:48:23.083Z,100904.59
2023-11-23T03:50:49.606Z,100909.78
2023-11-23T03:53:16.013Z,100899.16
2023-11-23T03:55:42.561Z,100889.03
2023-11-23T03:58:09.025Z,100886.38
2023-11-23T04:00:35.950Z,100889.13
2023-11-23T04:03:03.437Z,100878.41
2023-11-23T04:05:30.271Z,100872.44
2023-11-23T04:07:56.676Z,100872.34
2023-11-23T04:10:23.167Z,100876.81
2023-11-23T04:12:51.806Z,100877.56
2023-11-23T04:15:18.668Z,100879.41
2023-11-23T04:17:45.399Z,100886.41
2023-11-23T04:20:12.041Z,100884.50
2023-11-23T04:22:38.557Z,100884.59
2023-11-23T04:25:05.496Z,100882.97
2023-11-23T04:27:31.919Z,100878.63
2023-11-23T04:29:59.883Z,100866.19
2023-11-23T04:32:27.610Z,100863.50
2023-11-23T04:34:54.047Z,100869.03
2023-11-23T04:37:25.089Z,100869.81
2023-11-23T04:39:52.553Z,100854.28
2023-11-23T04:42:19.625Z,100845.53
2023-11-23T04:44:46.925Z,100849.88
2023-11-23T04:47:13.923Z,100838.50
2023-11-23T04:49:40.525Z,100839.47
2023-11-23T04:52:08.766Z,100835.72
2023-11-23T04:54:42.131Z,100828.13
2023-11-23T04:57:08.604Z,100836.78
2023-11-23T04:59:34.970Z,100838.44
2023-11-23T05:02:01.659Z,100825.44
2023-11-23T05:04:28.182Z,100835.88
2023-11-23T05:06:56.960Z,100829.78
2023-11-23T05:09:23.957Z,100829.78
2023-11-23T05:11:50.443Z,100811.38
2023-11-23T05:14:18.142Z,100818.47
2023-11-23T05:16:44.708Z,100819.28
2023-11-23T05:19:11.107Z,100826.41
2023-11-23T05:21:38.134Z,100818.19
2023-11-23T05:24:05.758Z,100812.28
2023-11-23T05:26:32.386Z,100805.34
2023-11-23T05:28:58.733Z,100809.75
2023-11-23T05:31:30.333Z,100803.69
2023-11-23T05:33:56.825Z,100790.56
2023-11-23T05:36:23.604Z,100799.31
2023-11-23T05:38:50.108Z,100790.56
2023-11-23T05:41:16.551Z,100807.03
2023-11-23T05:43:43.068Z,100794.63
2023-11-23T05:46:11.779Z,100798.44
2023-11-23T05:48:39.595Z,100787.75
2023-11-23T05:51:06.125Z,100784.47
2023-11-23T05:53:32.929Z,100786.06
2023-11-23T05:55:59.385Z,100780.78
2023-11-23T05:58:25.920Z,100780.81
2023-11-23T06:01:03.058Z,100771.38
2023-11-23T06:03:36.702Z,100770.28
2023-11-23T06:06:03.398Z,100759.78
2023-11-23T06:08:29.863Z,100769.50
2023-11-23T06:10:56.193Z,100775.72
2023-11-23T06:13:29.578Z,100761.63
2023-11-23T06:15:55.987Z,100756.53
2023-11-23T06:18:22.668Z,100762.66
2023-11-23T06:20:49.322Z,100730.34
2023-11-23T06:23:15.695Z,100746.13
2023-11-23T06:25:42.111Z,100740.78
2023-11-23T06:28:14.939Z,100733.81
2023-11-23T06:30:44.251Z,100731.97
2023-11-23T06:33:10.804Z,100731.25
2023-11-23T06:35:37.247Z,100712.91
2023-11-23T06:38:04.417Z,100719.84
2023-11-23T06:40:30.945Z,100718.19
2023-11-23T06:42:57.328Z,100704.22
2023-11-23T06:45:23.899Z,100698.13
2023-11-23T06:47:50.364Z,100709.47
2023-11-23T06:50:16.894Z,100713.84
2023-11-23T06:52:43.445Z,100702.47
2023-11-23T06:55:10.595Z,100693.72
2023-11-23T06:57:40.932Z,100693.75
2023-11-23T07:00:17.577Z,100685.91
2023-11-23T07:02:44.145Z,100682.41
2023-11-23T07:05:11.924Z,100683.28
2023-11-23T07:07:39.506Z,100682.41
2023-11-23T07:10:07.425Z,100667.56
2023-11-23T07:12:33.839Z,100668.47
2023-11-23T07:15:00.359Z,100674.56
2023-11-23T07:17:26.886Z,100676.31
2023-11-23T07:19:53.408Z,100671.94
2023-11-23T07:22:19.857Z,100674.56
2023-11-23T07:24:46.318Z,100671.09
2023-11-23T07:27:12.795Z,100664.06
2023-11-23T07:29:39.257Z,100662.31
2023-11-23T07:32:06.421Z,100656.22
2023-11-23T07:34:32.792Z,100655.38
2023-11-23T07:36:59.189Z,100650.13
2023-11-23T07:39:25.745Z,100664.09
2023-11-23T07:41:53.082Z,100659.75
2023-11-23T07:44:22.024Z,100640.53
2023-11-23T07:46:48.487Z,100651.03
2023-11-23T07:49:15.106Z,100644.88
2023-11-23T07:51:41.542Z,100632.69
2023-11-23T07:54:08.024Z,100648.31
2023-11-23T07:56:34.443Z,100638.81
2023-11-23T07:59:00.880Z,100637.03
2023-11-23T08:01:27.744Z,100637.94
2023-11-23T08:03:54.391Z,100640.53
2023-11-23T08:06:21.248Z,100643.16
2023-11-23T08:08:48.595Z,100634.47
2023-11-23T08:11:17.147Z,100635.31
2023-11-23T08:13:43.566Z,100626.59
2023-11-23T08:16:09.993Z,100630.06
2023-11-23T08:18:43.092Z,100614.38
2023-11-23T08:21:13.680Z,100589.03
2023-11-23T08:23:40.298Z,100589.94
2023-11-23T08:26:12.196Z,100589.97
2023-11-23T08:28:44.388Z,100581.22
2023-11-23T08:31:11.201Z,100591.69
2023-11-23T08:33:38.494Z,100582.94
2023-11-23T08:36:05.470Z,100593.41
2023-11-23T08:38:31.851Z,100579.41
2023-11-23T08:40:58.328Z,100588.22
2023-11-23T08:43:27.795Z,100591.56
2023-11-23T08:45:54.309Z,100588.16
2023-11-23T08:48:25.703Z,100581.13
2023-11-23T08:50:52.265Z,100582.06
2023-11-23T08:53:21.461Z,100577.59
2023-11-23T08:55:49.700Z,100571.34
2023-11-23T08:58:24.161Z,100569.78
2023-11-23T09:00:50.925Z,100557.53
2023-11-23T09:03:18.526Z,100551.44
2023-11-23T09:05:50.850Z,100555.75
2023-11-23T09:08:17.247Z,100533.00
2023-11-23T09:10:45.214Z,100533.13
2023-11-23T09:13:18.500Z,100537.41
2023-11-23T09:15:45.119Z,100539.31
2023-11-23T09:18:11.975Z,100536.44
2023-11-23T09:20:38.487Z,100533.81
2023-11-23T09:23:04.950Z,100530.34
2023-11-23T09:25:36.095Z,100520.19
2023-11-23T09:28:02.658Z,100526.16
2023-11-23T09:30:29.264Z,100516.59
2023-11-23T09:32:58.237Z,100521.06
2023-11-23T09:35:24.941Z,100525.41
2023-11-23T09:37:54.390Z,100528.66
2023-11-23T09:40:27.269Z,100540.00
2023-11-23T09:42:53.653Z,100523.44
2023-11-23T09:45:26.856Z,100512.22
2023-11-23T09:48:52.797Z,100493.13
2023-11-23T09:51:24.016Z,100494.59
2023-11-23T09:57:25.618Z,100475.50
2023-11-23T09:59:54.952Z,100455.63
2023-11-23T10:02:25.148Z,100464.25
2023-11-23T10:04:53.700Z,100461.66
2023-11-23T10:07:21.234Z,100465.19
2023-11-23T10:09:47.711Z,100463.38
2023-11-23T10:12:17.225Z,100477.44
2023-11-23T10:14:46.785Z,100469.59
2023-11-23T10:17:22.398Z,100468.75
2023-11-23T10:19:53.317Z,100464.28
2023-11-23T10:22:19.708Z,100465.25
2023-11-23T10:24:49.685Z,100461.69
2023-11-23T10:27:17.568Z,100437.06
2023-11-23T10:29:44.024Z,100433.72
2023-11-23T10:32:11.073Z,100431.13
2023-11-23T10:34:41.780Z,100424.88
2023-11-23T10:37:09.167Z,100417.56
2023-11-23T10:39:35.789Z,100418.00
2023-11-23T10:42:04.330Z,100429.34
2023-11-23T10:44:33.202Z,100408.16
2023-11-23T10:47:04.570Z,100426.88
2023-11-23T10:49:36.369Z,100406.78
2023-11-23T10:52:04.346Z,100415.34
2023-11-23T10:54:30.804Z,100407.53
2023-11-23T10:56:59.014Z,100417.94
2023-11-23T10:59:25.453Z,100406.53
2023-11-23T11:01:54.369Z,100413.53
2023-11-23T11:04:20.800Z,100407.16
2023-11-23T11:06:48.723Z,100395.22
2023-11-23T11:09:17.041Z,100378.53
2023-11-23T11:11:56.959Z,100372.50
2023-11-23T11:14:34.316Z,100362.31
2023-11-23T11:17:07.691Z,100362.28
2023-11-23T11:19:44.761Z,100366.72
2023-11-23T11:22:15.241Z,100369.13
2023-11-23T11:24:42.537Z,100367.38
2023-11-23T11:27:13.496Z,100357.44
2023-11-23T11:29:51.339Z,100354.34
2023-11-23T11:32:18.961Z,100347.56
2023-11-23T11:34:45.337Z,100345.78
2023-11-23T11:37:12.378Z,100327.16
2023-11-23T11:39:40.548Z,100328.72
2023-11-23T11:42:08.218Z,100316.28
2023-11-23T11:44:35.593Z,100313.72
2023-11-23T11:47:02.570Z,100316.38
2023-11-23T11:49:29.227Z,100303.59
2023-11-23T11:51:55.632Z,100283.41
2023-11-23T11:54:24.048Z,100292.25
2023-11-23T11:56:50.913Z,100295.41
2023-11-23T11:59:18.547Z,100285.69
2023-11-23T12:01:45.125Z,100281.03
2023-11-23T12:04:16.524Z,100272.78
2023-11-23T12:06:46.057Z,100280.13
2023-11-23T12:09:27.885Z,100267.97
2023-11-23T12:12:11.232Z,100267.25
2023-11-23T12:14:37.922Z,100260.16
2023-11-23T12:17:11.473Z,100254.97
2023-11-23T12:19:38.731Z,100233.06
2023-11-23T12:22:05.119Z,100228.81
2023-11-23T12:24:31.861Z,100219.84
2023-11-23T12:26:58.509Z,100215.72
2023-11-23T12:29:26.835Z,100207.25
2023-11-23T12:31:53.471Z,100210.34
2023-11-23T12:34:24.248Z,100201.53
2023-11-23T12:36:50.727Z,100199.28
2023-11-23T12:39:17.191Z,100184.97
2023-11-23T12:41:52.787Z,100172.81
2023-11-23T12:44:21.938Z,100175.16
2023-11-23T12:46:48.501Z,100181.47
2023-11-23T12:49:18.672Z,100163.44
2023-11-23T12:51:45.734Z,100160.00
2023-11-23T12:54:12.238Z,100146.06
2023-11-23T12:56:39.146Z,100142.38
2023-11-23T12:59:08.487Z,100136.81
2023-11-23T13:01:40.364Z,100136.66
2023-11-23T13:04:09.094Z,100125.69
2023-11-23T13:06:36.562Z,100131.13
2023-11-23T13:09:04.757Z,100120.28
2023-11-23T13:11:31.220Z,100123.13
2023-11-23T13:13:57.732Z,100106.50
2023-11-23T13:16:24.912Z,100105.75
2023-11-23T13:19:06.264Z,100112.19
2023-11-23T13:21:39.545Z,100109.13
2023-11-23T13:24:07.816Z,100093.34
2023-11-23T13:26:34.559Z,100091.72
2023-11-23T13:29:01.188Z,100082.00
2023-11-23T13:31:28.647Z,100079.97
2023-11-23T13:33:55.376Z,100070.53
2023-11-23T13:36:21.825Z,100078.78
2023-11-23T13:38:50.270Z,100066.56
2023-11-23T13:41:16.897Z,100046.50
2023-11-23T13:43:43.809Z,100046.63
2023-11-23T13:46:10.510Z,100031.84
2023-11-23T13:48:37.061Z,100031.03
2023-11-23T13:51:04.787Z,100036.19
2023-11-23T13:53:31.209Z,100044.72
2023-11-23T13:55:57.969Z,100019.47
2023-11-23T13:58:26.936Z,100024.03
2023-11-23T14:00:53.602Z,100028.25
2023-11-23T14:03:20.069Z,100017.78
2023-11-23T14:05:47.176Z,100026.97
2023-11-23T14:08:15.212Z,100008.22
2023-11-23T14:10:49.676Z,100023.56
2023-11-23T14:13:16.804Z,100010.03
2023-11-23T14:15:43.338Z,100003.81
2023-11-23T14:18:11.747Z,100011.72
2023-11-23T14:20:38.867Z,99996.16
2023-11-23T14:23:06.735Z,99990.00
2023-11-23T14:25:33.117Z,99973.22
2023-11-23T14:28:00.293Z,99991.09
2023-11-23T14:30:28.503Z,99990.69
2023-11-23T14:32:55.047Z,99978.47
2023-11-23T14:35:22.571Z,99971.97
2023-11-23T14:37:51.085Z,99972.94
2023-11-23T14:40:20.111Z,99958.13
2023-11-23T14:42:56.283Z,99959.69
2023-11-23T14:45:25.289Z,99964.53
2023-11-23T14:47:53.505Z,99940.47
2023-11-23T14:50:20.968Z,99944.22
2023-11-23T14:52:47.528Z,99932.63
2023-11-23T14:55:16.840Z,99929.84
2023-11-23T14:57:43.305Z,99936.09
2023-11-23T15:00:10.713Z,99925.66
2023-11-23T15:02:40.750Z,99934.50
2023-11-23T15:05:09.064Z,99925.63
2023-11-23T15:07:35.403Z,99921.31
2023-11-23T15:10:03.696Z,99939.63
2023-11-23T15:12:30.099Z,99958.84
2023-11-23T15:14:57.384Z,99970.75
2023-11-23T15:17:26.920Z,99974.06
2023-11-23T15:19:53.672Z,99974.19
2023-11-23T15:22:21.899Z,99984.81
2023-11-23T15:24:57.527Z,99991.47
2023-11-23T15:27:30.559Z,99993.31
2023-11-23T15:29:58.906Z,100006.38
2023-11-23T15:32:28.605Z,100016.91
2023-11-23T15:34:57.260Z,100024.09
2023-11-23T15:37:24.646Z,100019.72
2023-11-23T15:39:51.164Z,100033.63
2023-11-23T15:42:17.799Z,100019.69
2023-11-23T15:44:44.332Z,100026.63
2023-11-23T15:47:13.176Z,100017.97
2023-11-23T15:49:39.602Z,100010.19
2023-11-23T15:52:07.338Z,100002.38
2023-11-23T15:54:34.441Z,100003.22
2023-11-23T15:57:01.400Z,100024.94
2023-11-23T15:59:28.165Z,100013.66
2023-11-23T16:01:54.716Z,100003.25
2023-11-23T16:04:22.191Z,100004.94
2023-11-23T16:06:49.240Z,99991.91
2023-11-23T16:09:16.884Z,100027.53
2023-11-23T16:11:45.522Z,100021.47
2023-11-23T16:14:12.851Z,100011.84
2023-11-23T16:16:39.522Z,100016.22
2023-11-23T16:19:06.348Z,100013.66
2023-11-23T16:21:32.729Z,100037.13
2023-11-23T16:23:59.202Z,100034.50
2023-11-23T16:26:26.111Z,100048.19
2023-11-23T16:28:52.853Z,100032.59
2023-11-23T16:31:19.229Z,100030.88
2023-11-23T16:33:45.650Z,100025.56
2023-11-23T16:36:26.480Z,100033.53
2023-11-23T16:39:00.727Z,100013.50
2023-11-23T16:41:28.773Z,100011.88
2023-11-23T16:43:55.174Z,100012.78
2023-11-23T16:46:21.651Z,99998.88
2023-11-23T16:48:48.106Z,100004.03
2023-11-23T16:51:19.920Z,100011.91
2023-11-23T16:53:46.378Z,100009.22
2023-11-23T16:56:13.608Z,100012.78
2023-11-23T16:58:41.828Z,100024.09
2023-11-23T17:01:08.184Z,100007.56
2023-11-23T17:03:34.775Z,100023.22
2023-11-23T17:06:01.768Z,100025.78
2023-11-23T17:08:28.914Z,100031.03
2023-11-23T17:10:55.830Z,100035.31
2023-11-23T17:13:24.136Z,100031.00
2023-11-23T17:15:50.972Z,100021.34
2023-11-23T17:18:17.525Z,100009.22
2023-11-23T17:20:44.001Z,100015.28
2023-11-23T17:23:11.857Z,100009.91
2023-11-23T17:25:40.300Z,100011.84
2023-11-23T17:28:07.605Z,100016.19
2023-11-23T17:30:39.129Z,100005.75
2023-11-23T17:33:05.581Z,100017.06
2023-11-23T17:35:31.977Z,100012.72
2023-11-23T17:37:58.416Z,100011.03
2023-11-23T17:40:24.888Z,100019.59
2023-11-23T17:42:51.579Z,100023.13
2023-11-23T17:45:18.387Z,100034.22
2023-11-23T17:47:45.356Z,100028.31
2023-11-23T17:50:13.391Z,100022.97
2023-11-23T17:52:40.195Z,100018.50
2023-11-23T17:55:07.488Z,100001.34
2023-11-23T17:57:35.531Z,100023.97
2023-11-23T18:00:06.954Z,100004.88
2023-11-23T18:02:34.588Z,100009.28
2023-11-23T18:05:01.144Z,100000.56
2023-11-23T18:07:27.483Z,100014.53
2023-11-23T18:09:53.902Z,100010.97
2023-11-23T18:12:20.391Z,100019.72
2023-11-23T18:14:46.798Z,100029.22
2023-11-23T18:17:13.284Z,100042.16
2023-11-23T18:19:39.697Z,100053.53
2023-11-23T18:22:06.397Z,100027.44
2023-11-23T18:24:34.378Z,100018.72
2023-11-23T18:27:04.790Z,100023.22
2023-11-23T18:29:31.838Z,100038.72
2023-11-23T18:31:58.419Z,100024.66
2023-11-23T18:34:25.891Z,100012.63
2023-11-23T18:36:52.696Z,100012.72
2023-11-23T18:39:20.676Z,100006.69
2023-11-23T18:41:47.124Z,99996.88
2023-11-23T18:44:14.019Z,99995.03
2023-11-23T18:46:40.541Z,99994.25
2023-11-23T18:49:07.684Z,99990.81
2023-11-23T18:51:34.094Z,100001.16
2023-11-23T18:54:02.085Z,99989.06
2023-11-23T18:56:29.695Z,100001.22
2023-11-23T18:58:58.176Z,100007.31
2023-11-23T19:01:25.459Z,100000.34
2023-11-23T19:03:52.352Z,99990.63
2023-11-23T19:06:19.076Z,100000.88
2023-11-23T19:08:46.658Z,99992.63
2023-11-23T19:11:14.972Z,99982.78
2023-11-23T19:13:41.857Z,99987.09
2023-11-23T19:16:11.405Z,99975.16
2023-11-23T19:18:39.249Z,99969.97
2023-11-23T19:21:07.516Z,99984.72
2023-11-23T19:23:34.754Z,99979.41
2023-11-23T19:26:03.162Z,99984.53
2023-11-23T19:28:29.930Z,99979.38
2023-11-23T19:31:03.029Z,99950.81
2023-11-23T19:33:31.759Z,99956.50
2023-11-23T19:35:59.004Z,99951.72
2023-11-23T19:38:26.018Z,99960.31
2023-11-23T19:40:54.792Z,99957.50
2023-11-23T19:43:21.694Z,99972.44
2023-11-23T19:45:48.780Z,99973.84
2023-11-23T19:48:16.247Z,99986.25
2023-11-23T19:50:43.003Z,99986.38
2023-11-23T19:53:13.009Z,99993.00
2023-11-23T19:55:39.353Z,99973.41
2023-11-23T19:58:06.478Z,99975.16
2023-11-23T20:00:32.944Z,99966.09
2023-11-23T20:03:00.222Z,99955.16
2023-11-23T20:05:26.714Z,99956.00
2023-11-23T20:07:54.864Z,99947.47
2023-11-23T20:10:22.265Z,99948.16
2023-11-23T20:12:49.190Z,99943.09
2023-11-23T20:15:15.650Z,99943.00
2023-11-23T20:17:42.086Z,99951.66
2023-11-23T20:20:11.112Z,99950.09
2023-11-23T20:22:37.486Z,99948.25
2023-11-23T20:25:05.392Z,99958.59
2023-11-23T20:27:32.223Z,99978.31
2023-11-23T20:29:59.325Z,99974.75
2023-11-23T20:32:26.556Z,99943.66
2023-11-23T20:34:53.715Z,99955.91
2023-11-23T20:37:20.713Z,99956.69
2023-11-23T20:39:49.088Z,99961.88
2023-11-23T20:42:19.268Z,99990.41
2023-11-23T20:44:46.069Z,99997.97
2023-11-23T20:47:13.212Z,100005.88
2023-11-23T20:49:40.766Z,99989.28
2023-11-23T20:52:07.995Z,99977.19
2023-11-23T20:54:35.057Z,99995.91
2023-11-23T20:57:01.902Z,99982.50
2023-11-23T20:59:28.553Z,99978.75
2023-11-23T21:01:55.502Z,99971.81
2023-11-23T21:04:27.263Z,99975.28
2023-11-23T21:07:01.768Z,99979.13
2023-11-23T21:09:29.304Z,99995.16
2023-11-23T21:11:55.998Z,99986.31
2023-11-23T21:14:23.273Z,99982.41
2023-11-23T21:16:49.615Z,99984.88
2023-11-23T21:19:16.008Z,99986.09
2023-11-23T21:21:43.582Z,99982.50
2023-11-23T21:24:11.428Z,99989.16
2023-11-23T21:26:37.786Z,99986.41
2023-11-23T21:29:04.426Z,99981.41
2023-11-23T21:31:30.929Z,99988.28
2023-11-23T21:33:59.008Z,99976.28
2023-11-23T21:36:27.145Z,99966.56
2023-11-23T21:38:53.582Z,99986.78
2023-11-23T21:41:20.074Z,99963.34
2023-11-23T21:43:46.525Z,99971.03
2023-11-23T21:46:20.159Z,99955.69
2023-11-23T21:48:48.092Z,99961.72
2023-11-23T21:51:23.153Z,99959.16
2023-11-23T21:53:50.439Z,99959.19
2023-11-23T21:56:17.103Z,99955.59
2023-11-23T21:58:43.596Z,99957.38
2023-11-23T22:01:10.392Z,99953.00
2023-11-23T22:03:37.039Z,99964.06
2023-11-23T22:06:03.795Z,99956.44
2023-11-23T22:08:30.141Z,99955.72
2023-11-23T22:10:57.767Z,99949.38
2023-11-23T22:13:24.159Z,99949.31
2023-11-23T22:15:50.688Z,99941.84
2023-11-23T22:18:17.362Z,99949.75
2023-11-23T22:20:43.907Z,99968.00
2023-11-23T22:23:10.544Z,99958.47
2023-11-23T22:25:37.174Z,99964.34
2023-11-23T22:28:05.109Z,99956.50
2023-11-23T22:30:32.417Z,99962.53
2023-11-23T22:33:00.876Z,99958.13
2023-11-23T22:35:27.610Z,99972.00
2023-11-23T22:37:54.736Z,100000.38
2023-11-23T22:40:21.688Z,100066.28
2023-11-23T22:42:49.205Z,100077.38
2023-11-23T22:45:16.005Z,100067.16
2023-11-23T22:47:42.525Z,100039.16
2023-11-23T22:50:10.165Z,100040.22
2023-11-23T22:52:36.760Z,100040.88
2023-11-23T22:55:03.718Z,100038.06
2023-11-23T22:57:30.191Z,100031.69
2023-11-23T22:59:56.549Z,100033.28
2023-11-23T23:02:24.189Z,100044.53
2023-11-23T23:04:52.552Z,100056.81
2023-11-23T23:07:22.290Z,100051.88
2023-11-23T23:09:48.738Z,100048.81
2023-11-23T23:12:15.221Z,100044.97
2023-11-23T23:14:41.616Z,100019.69
2023-11-23T23:17:08.039Z,100018.72
2023-11-23T23:19:34.874Z,100033.66
2023-11-23T23:22:01.589Z,100016.00
2023-11-23T23:24:28.051Z,100017.06
2023-11-23T23:26:54.419Z,100026.03
2023-11-23T23:29:21.614Z,100016.03
2023-11-23T23:31:48.054Z,100021.22
2023-11-23T23:34:15.355Z,100025.97
2023-11-23T23:36:42.383Z,100029.69
2023-11-23T23:39:08.965Z,100024.00
2023-11-23T23:41:35.532Z,100023.88
2023-11-23T23:44:01.872Z,100022.31
2023-11-23T23:46:28.365Z,100034.97
2023-11-23T23:48:54.795Z,100030.25
2023-11-23T23:51:21.195Z,100032.94
2023-11-23T23:53:47.587Z,100021.16
2023-11-23T23:56:13.936Z,100007.81
2023-11-23T23:58:40.297Z,100014.56
